sensor_id;sensor_type;location;lat;lon;timestamp;temperature;humidity
9901;DHT22;4989;48.772;9.154;2023-09-30T00:01:12;19.50;89.20
9901;DHT22;4989;48.772;9.154;2023-09-30T00:06:35;19.50;89.80
9901;DHT22;4989;48.772;9.154;2023-09-30T00:11:56;19.80;89.30
9901;DHT22;4989;48.772;9.154;2023-09-30T00:17:17;20.10;87.10
9901;DHT22;4989;48.772;9.154;2023-09-30T00:22:38;19.60;90.40
9901;DHT22;4989;48.772;9.154;2023-09-30T00:27:59;19.90;91.00
9901;DHT22;4989;48.772;9.154;2023-09-30T00:33:19;20.70;89.50
9901;DHT22;4989;48.772;9.154;2023-09-30T00:38:40;21.40;87.70
9901;DHT22;4989;48.772;9.154;2023-09-30T00:44:03;21.60;85.00
9901;DHT22;4989;48.772;9.154;2023-09-30T00:49:25;21.80;83.10
9901;DHT22;4989;48.772;9.154;2023-09-30T00:54:48;21.90;83.60
9901;DHT22;4989;48.772;9.154;2023-09-30T01:00:10;22.10;83.60
9901;DHT22;4989;48.772;9.154;2023-09-30T01:05:33;22.10;82.70
9901;DHT22;4989;48.772;9.154;2023-09-30T01:10:55;22.20;82.40
9901;DHT22;4989;48.772;9.154;2023-09-30T01:16:17;22.20;82.30
9901;DHT22;4989;48.772;9.154;2023-09-30T01:21:38;22.30;82.30
9901;DHT22;4989;48.772;9.154;2023-09-30T01:26:58;22.20;81.80
9901;DHT22;4989;48.772;9.154;2023-09-30T01:32:19;22.20;81.40
9901;DHT22;4989;48.772;9.154;2023-09-30T01:37:41;20.90;84.20
9901;DHT22;4989;48.772;9.154;2023-09-30T01:43:02;20.10;88.90
9901;DHT22;4989;48.772;9.154;2023-09-30T01:48:23;21.00;88.30
9901;DHT22;4989;48.772;9.154;2023-09-30T01:53:45;21.00;86.80
9901;DHT22;4989;48.772;9.154;2023-09-30T01:59:06;20.50;89.30
9901;DHT22;4989;48.772;9.154;2023-09-30T02:04:27;21.10;88.30
9901;DHT22;4989;48.772;9.154;2023-09-30T02:09:48;21.50;87.00
9901;DHT22;4989;48.772;9.154;2023-09-30T02:15:10;20.70;88.30
9901;DHT22;4989;48.772;9.154;2023-09-30T02:20:32;21.10;88.60
9901;DHT22;4989;48.772;9.154;2023-09-30T02:25:52;21.50;86.60
9901;DHT22;4989;48.772;9.154;2023-09-30T02:31:15;21.60;85.00
9901;DHT22;4989;48.772;9.154;2023-09-30T02:36:38;21.40;85.40
9901;DHT22;4989;48.772;9.154;2023-09-30T02:41:59;21.10;86.40
9901;DHT22;4989;48.772;9.154;2023-09-30T02:47:21;21.30;87.20
9901;DHT22;4989;48.772;9.154;2023-09-30T02:52:42;21.40;86.70
9901;DHT22;4989;48.772;9.154;2023-09-30T02:58:02;21.50;84.60
9901;DHT22;4989;48.772;9.154;2023-09-30T03:03:24;21.20;84.80
9901;DHT22;4989;48.772;9.154;2023-09-30T03:08:46;20.90;85.80
9901;DHT22;4989;48.772;9.154;2023-09-30T03:14:09;20.10;89.30
9901;DHT22;4989;48.772;9.154;2023-09-30T03:19:31;19.80;90.30
9901;DHT22;4989;48.772;9.154;2023-09-30T03:24:54;20.40;89.20
9901;DHT22;4989;48.772;9.154;2023-09-30T03:30:17;19.50;93.00
9901;DHT22;4989;48.772;9.154;2023-09-30T03:35:41;20.60;90.50
9901;DHT22;4989;48.772;9.154;2023-09-30T03:41:02;20.90;87.60
9901;DHT22;4989;48.772;9.154;2023-09-30T03:46:23;21.20;87.50
9901;DHT22;4989;48.772;9.154;2023-09-30T03:51:44;20.90;85.20
9901;DHT22;4989;48.772;9.154;2023-09-30T03:57:05;20.70;87.20
9901;DHT22;4989;48.772;9.154;2023-09-30T04:02:26;20.80;86.10
9901;DHT22;4989;48.772;9.154;2023-09-30T04:07:47;21.00;87.80
9901;DHT22;4989;48.772;9.154;2023-09-30T04:13:08;21.40;87.00
9901;DHT22;4989;48.772;9.154;2023-09-30T04:18:29;21.40;86.50
9901;DHT22;4989;48.772;9.154;2023-09-30T04:23:50;21.50;85.50
9901;DHT22;4989;48.772;9.154;2023-09-30T04:29:12;21.60;85.50
9901;DHT22;4989;48.772;9.154;2023-09-30T04:34:35;21.70;85.10
9901;DHT22;4989;48.772;9.154;2023-09-30T04:39:55;21.70;84.80
9901;DHT22;4989;48.772;9.154;2023-09-30T04:45:16;21.70;84.70
9901;DHT22;4989;48.772;9.154;2023-09-30T04:50:41;21.60;84.70
9901;DHT22;4989;48.772;9.154;2023-09-30T04:56:03;21.60;83.60
9901;DHT22;4989;48.772;9.154;2023-09-30T05:01:24;20.70;85.50
9901;DHT22;4989;48.772;9.154;2023-09-30T05:06:45;21.30;86.90
9901;DHT22;4989;48.772;9.154;2023-09-30T05:12:06;21.40;86.00
9901;DHT22;4989;48.772;9.154;2023-09-30T05:17:28;21.50;84.40
9901;DHT22;4989;48.772;9.154;2023-09-30T05:22:49;21.40;85.40
9901;DHT22;4989;48.772;9.154;2023-09-30T05:28:11;21.40;84.80
9901;DHT22;4989;48.772;9.154;2023-09-30T05:33:32;21.20;84.50
9901;DHT22;4989;48.772;9.154;2023-09-30T05:38:54;20.80;85.30
9901;DHT22;4989;48.772;9.154;2023-09-30T05:44:16;20.20;87.90
9901;DHT22;4989;48.772;9.154;2023-09-30T05:49:37;19.90;89.90
9901;DHT22;4989;48.772;9.154;2023-09-30T05:54:58;19.30;90.90
9901;DHT22;4989;48.772;9.154;2023-09-30T06:00:24;18.90;92.60
9901;DHT22;4989;48.772;9.154;2023-09-30T06:05:52;19.20;92.50
9901;DHT22;4989;48.772;9.154;2023-09-30T06:11:21;20.20;90.60
9901;DHT22;4989;48.772;9.154;2023-09-30T06:16:45;20.10;89.80
9901;DHT22;4989;48.772;9.154;2023-09-30T06:22:06;19.10;92.00
9901;DHT22;4989;48.772;9.154;2023-09-30T06:27:27;20.00;91.70
9901;DHT22;4989;48.772;9.154;2023-09-30T06:32:48;20.60;90.60
9901;DHT22;4989;48.772;9.154;2023-09-30T06:38:09;20.90;90.00
9901;DHT22;4989;48.772;9.154;2023-09-30T06:43:30;21.30;88.50
9901;DHT22;4989;48.772;9.154;2023-09-30T06:48:53;21.40;87.40
9901;DHT22;4989;48.772;9.154;2023-09-30T06:54:14;21.60;86.90
9901;DHT22;4989;48.772;9.154;2023-09-30T06:59:35;21.70;87.00
9901;DHT22;4989;48.772;9.154;2023-09-30T07:04:56;21.90;86.00
9901;DHT22;4989;48.772;9.154;2023-09-30T07:10:18;21.20;83.10
9901;DHT22;4989;48.772;9.154;2023-09-30T07:15:38;20.20;90.80
9901;DHT22;4989;48.772;9.154;2023-09-30T07:20:59;21.10;87.60
9901;DHT22;4989;48.772;9.154;2023-09-30T07:26:26;21.50;86.50
9901;DHT22;4989;48.772;9.154;2023-09-30T07:31:48;21.70;85.80
9901;DHT22;4989;48.772;9.154;2023-09-30T07:37:11;21.60;85.10
9901;DHT22;4989;48.772;9.154;2023-09-30T07:42:34;21.70;85.20
9901;DHT22;4989;48.772;9.154;2023-09-30T07:47:55;21.80;83.80
9901;DHT22;4989;48.772;9.154;2023-09-30T07:53:16;21.80;84.40
9901;DHT22;4989;48.772;9.154;2023-09-30T07:58:37;21.80;84.00
9901;DHT22;4989;48.772;9.154;2023-09-30T08:03:58;21.60;82.00
9901;DHT22;4989;48.772;9.154;2023-09-30T08:09:19;19.90;87.40
9901;DHT22;4989;48.772;9.154;2023-09-30T08:14:40;20.70;86.80
9901;DHT22;4989;48.772;9.154;2023-09-30T08:20:00;21.10;84.30
9901;DHT22;4989;48.772;9.154;2023-09-30T08:25:21;21.10;84.00
9901;DHT22;4989;48.772;9.154;2023-09-30T08:30:43;21.10;83.70
9901;DHT22;4989;48.772;9.154;2023-09-30T08:36:05;20.30;86.40
9901;DHT22;4989;48.772;9.154;2023-09-30T08:41:33;20.30;86.70
9901;DHT22;4989;48.772;9.154;2023-09-30T08:46:56;21.50;85.10
9901;DHT22;4989;48.772;9.154;2023-09-30T08:52:17;22.00;81.40
9901;DHT22;4989;48.772;9.154;2023-09-30T08:57:41;21.60;80.30
9901;DHT22;4989;48.772;9.154;2023-09-30T09:03:03;22.50;78.40
9901;DHT22;4989;48.772;9.154;2023-09-30T09:08:25;21.90;83.70
9901;DHT22;4989;48.772;9.154;2023-09-30T09:13:52;22.50;77.40
9901;DHT22;4989;48.772;9.154;2023-09-30T09:19:17;22.10;77.70
9901;DHT22;4989;48.772;9.154;2023-09-30T09:24:38;21.80;78.60
9901;DHT22;4989;48.772;9.154;2023-09-30T09:30:17;21.60;82.10
9901;DHT22;4989;48.772;9.154;2023-09-30T09:35:38;22.40;82.00
9901;DHT22;4989;48.772;9.154;2023-09-30T09:40:59;22.70;80.30
9901;DHT22;4989;48.772;9.154;2023-09-30T09:46:21;22.90;79.20
9901;DHT22;4989;48.772;9.154;2023-09-30T09:51:49;23.10;79.70
9901;DHT22;4989;48.772;9.154;2023-09-30T09:57:12;23.60;77.10
9901;DHT22;4989;48.772;9.154;2023-09-30T10:02:33;23.50;74.90
9901;DHT22;4989;48.772;9.154;2023-09-30T10:07:54;23.50;76.50
9901;DHT22;4989;48.772;9.154;2023-09-30T10:19:21;23.30;76.90
9901;DHT22;4989;48.772;9.154;2023-09-30T10:24:50;22.80;76.80
9901;DHT22;4989;48.772;9.154;2023-09-30T10:30:15;23.10;77.40
9901;DHT22;4989;48.772;9.154;2023-09-30T10:41:00;23.60;76.30
9901;DHT22;4989;48.772;9.154;2023-09-30T10:51:47;23.50;76.70
9901;DHT22;4989;48.772;9.154;2023-09-30T10:57:10;23.40;76.80
9901;DHT22;4989;48.772;9.154;2023-09-30T11:02:31;23.50;76.20
9901;DHT22;4989;48.772;9.154;2023-09-30T11:07:53;23.70;75.10
9901;DHT22;4989;48.772;9.154;2023-09-30T11:13:19;23.80;74.60
9901;DHT22;4989;48.772;9.154;2023-09-30T11:18:40;23.80;70.50
9901;DHT22;4989;48.772;9.154;2023-09-30T11:24:02;23.40;72.90
9901;DHT22;4989;48.772;9.154;2023-09-30T11:29:23;24.00;72.80
9901;DHT22;4989;48.772;9.154;2023-09-30T11:34:45;25.90;68.90
9901;DHT22;4989;48.772;9.154;2023-09-30T11:40:14;25.10;70.20
9901;DHT22;4989;48.772;9.154;2023-09-30T11:45:35;24.50;69.40
9901;DHT22;4989;48.772;9.154;2023-09-30T11:50:58;23.00;66.00
9901;DHT22;4989;48.772;9.154;2023-09-30T11:56:22;24.10;67.90
9901;DHT22;4989;48.772;9.154;2023-09-30T12:01:48;24.50;67.50
9901;DHT22;4989;48.772;9.154;2023-09-30T12:07:26;24.30;64.60
9901;DHT22;4989;48.772;9.154;2023-09-30T12:12:46;24.00;69.80
9901;DHT22;4989;48.772;9.154;2023-09-30T12:18:09;24.00;69.70
9901;DHT22;4989;48.772;9.154;2023-09-30T12:23:31;23.90;70.40
9901;DHT22;4989;48.772;9.154;2023-09-30T12:28:52;23.90;70.80
9901;DHT22;4989;48.772;9.154;2023-09-30T12:34:13;24.10;67.70
9901;DHT22;4989;48.772;9.154;2023-09-30T12:39:34;25.10;68.00
9901;DHT22;4989;48.772;9.154;2023-09-30T12:44:57;25.10;66.80
9901;DHT22;4989;48.772;9.154;2023-09-30T12:50:18;25.10;62.40
9901;DHT22;4989;48.772;9.154;2023-09-30T12:55:39;24.90;65.80
9901;DHT22;4989;48.772;9.154;2023-09-30T13:01:00;24.90;66.70
9901;DHT22;4989;48.772;9.154;2023-09-30T13:06:40;25.10;66.40
9901;DHT22;4989;48.772;9.154;2023-09-30T13:12:02;24.90;67.30
9901;DHT22;4989;48.772;9.154;2023-09-30T13:17:24;24.70;68.70
9901;DHT22;4989;48.772;9.154;2023-09-30T13:22:45;24.50;67.30
9901;DHT22;4989;48.772;9.154;2023-09-30T13:28:06;24.50;62.60
9901;DHT22;4989;48.772;9.154;2023-09-30T13:33:27;24.80;59.90
9901;DHT22;4989;48.772;9.154;2023-09-30T13:38:48;24.50;66.50
9901;DHT22;4989;48.772;9.154;2023-09-30T13:44:09;24.30;68.20
9901;DHT22;4989;48.772;9.154;2023-09-30T13:49:32;24.20;68.40
9901;DHT22;4989;48.772;9.154;2023-09-30T13:54:54;24.10;68.50
9901;DHT22;4989;48.772;9.154;2023-09-30T14:00:16;24.00;66.50
9901;DHT22;4989;48.772;9.154;2023-09-30T14:05:37;24.00;68.50
9901;DHT22;4989;48.772;9.154;2023-09-30T14:10:59;24.00;69.30
9901;DHT22;4989;48.772;9.154;2023-09-30T14:16:19;24.00;69.40
9901;DHT22;4989;48.772;9.154;2023-09-30T14:21:41;24.20;66.30
9901;DHT22;4989;48.772;9.154;2023-09-30T14:27:03;24.10;66.20
9901;DHT22;4989;48.772;9.154;2023-09-30T14:32:24;24.10;67.50
9901;DHT22;4989;48.772;9.154;2023-09-30T14:37:45;24.10;66.50
9901;DHT22;4989;48.772;9.154;2023-09-30T14:43:07;24.10;68.20
9901;DHT22;4989;48.772;9.154;2023-09-30T14:48:28;24.10;68.70
9901;DHT22;4989;48.772;9.154;2023-09-30T14:53:49;24.10;64.50
9901;DHT22;4989;48.772;9.154;2023-09-30T14:59:10;24.00;66.70
9901;DHT22;4989;48.772;9.154;2023-09-30T15:04:31;23.90;67.90
9901;DHT22;4989;48.772;9.154;2023-09-30T15:09:53;23.80;68.70
9901;DHT22;4989;48.772;9.154;2023-09-30T15:15:15;23.80;68.00
9901;DHT22;4989;48.772;9.154;2023-09-30T15:20:38;23.80;68.50
9901;DHT22;4989;48.772;9.154;2023-09-30T15:26:00;23.80;67.30
9901;DHT22;4989;48.772;9.154;2023-09-30T15:31:29;23.80;67.30
9901;DHT22;4989;48.772;9.154;2023-09-30T15:36:51;23.80;68.90
9901;DHT22;4989;48.772;9.154;2023-09-30T15:42:13;23.70;64.80
9901;DHT22;4989;48.772;9.154;2023-09-30T15:47:36;23.70;65.10
9901;DHT22;4989;48.772;9.154;2023-09-30T15:52:57;23.50;68.10
9901;DHT22;4989;48.772;9.154;2023-09-30T15:58:18;23.50;68.40
9901;DHT22;4989;48.772;9.154;2023-09-30T16:03:39;23.60;68.60
9901;DHT22;4989;48.772;9.154;2023-09-30T16:09:02;23.60;68.90
9901;DHT22;4989;48.772;9.154;2023-09-30T16:14:23;23.50;68.50
9901;DHT22;4989;48.772;9.154;2023-09-30T16:19:44;23.50;68.70
9901;DHT22;4989;48.772;9.154;2023-09-30T16:25:05;23.50;69.10
9901;DHT22;4989;48.772;9.154;2023-09-30T16:30:27;23.40;68.70
9901;DHT22;4989;48.772;9.154;2023-09-30T16:35:50;23.40;68.50
9901;DHT22;4989;48.772;9.154;2023-09-30T16:41:16;23.40;68.60
9901;DHT22;4989;48.772;9.154;2023-09-30T16:46:36;23.30;69.10
9901;DHT22;4989;48.772;9.154;2023-09-30T16:51:58;23.20;68.30
9901;DHT22;4989;48.772;9.154;2023-09-30T16:57:19;23.10;69.50
9901;DHT22;4989;48.772;9.154;2023-09-30T17:02:41;23.10;69.30
9901;DHT22;4989;48.772;9.154;2023-09-30T17:08:04;23.10;69.90
9901;DHT22;4989;48.772;9.154;2023-09-30T17:13:26;23.20;67.20
9901;DHT22;4989;48.772;9.154;2023-09-30T17:18:48;23.10;69.20
9901;DHT22;4989;48.772;9.154;2023-09-30T17:24:09;23.10;69.80
9901;DHT22;4989;48.772;9.154;2023-09-30T17:29:30;23.10;69.40
9901;DHT22;4989;48.772;9.154;2023-09-30T17:34:51;23.00;67.50
9901;DHT22;4989;48.772;9.154;2023-09-30T17:40:12;23.00;70.60
9901;DHT22;4989;48.772;9.154;2023-09-30T17:45:33;23.00;67.70
9901;DHT22;4989;48.772;9.154;2023-09-30T17:50:54;22.80;66.50
9901;DHT22;4989;48.772;9.154;2023-09-30T17:56:20;22.40;67.30
9901;DHT22;4989;48.772;9.154;2023-09-30T18:01:41;21.70;67.70
9901;DHT22;4989;48.772;9.154;2023-09-30T18:07:05;21.00;69.80
9901;DHT22;4989;48.772;9.154;2023-09-30T18:12:27;21.20;69.80
9901;DHT22;4989;48.772;9.154;2023-09-30T18:17:49;21.60;69.20
9901;DHT22;4989;48.772;9.154;2023-09-30T18:23:29;21.20;70.40
9901;DHT22;4989;48.772;9.154;2023-09-30T18:28:50;21.50;76.00
9901;DHT22;4989;48.772;9.154;2023-09-30T18:34:10;21.70;73.60
9901;DHT22;4989;48.772;9.154;2023-09-30T18:39:32;21.70;73.60
9901;DHT22;4989;48.772;9.154;2023-09-30T18:44:52;21.90;72.00
9901;DHT22;4989;48.772;9.154;2023-09-30T18:50:13;21.50;69.80
9901;DHT22;4989;48.772;9.154;2023-09-30T18:55:36;20.80;72.20
9901;DHT22;4989;48.772;9.154;2023-09-30T19:00:58;21.10;71.30
9901;DHT22;4989;48.772;9.154;2023-09-30T19:06:19;20.50;73.30
9901;DHT22;4989;48.772;9.154;2023-09-30T19:11:40;21.00;73.40
9901;DHT22;4989;48.772;9.154;2023-09-30T19:17:02;20.30;74.30
9901;DHT22;4989;48.772;9.154;2023-09-30T19:22:23;20.90;73.40
9901;DHT22;4989;48.772;9.154;2023-09-30T19:27:43;20.90;73.20
9901;DHT22;4989;48.772;9.154;2023-09-30T19:33:04;20.60;74.60
9901;DHT22;4989;48.772;9.154;2023-09-30T19:38:25;20.60;73.70
9901;DHT22;4989;48.772;9.154;2023-09-30T19:43:46;20.10;73.00
9901;DHT22;4989;48.772;9.154;2023-09-30T19:49:07;20.00;75.10
9901;DHT22;4989;48.772;9.154;2023-09-30T19:54:27;20.50;75.80
9901;DHT22;4989;48.772;9.154;2023-09-30T19:59:48;20.60;72.60
9901;DHT22;4989;48.772;9.154;2023-09-30T20:05:09;20.00;74.60
9901;DHT22;4989;48.772;9.154;2023-09-30T20:10:31;20.20;75.30
9901;DHT22;4989;48.772;9.154;2023-09-30T20:15:54;20.60;75.80
9901;DHT22;4989;48.772;9.154;2023-09-30T20:21:15;20.90;73.90
9901;DHT22;4989;48.772;9.154;2023-09-30T20:26:37;20.80;74.60
9901;DHT22;4989;48.772;9.154;2023-09-30T20:31:58;20.70;76.10
9901;DHT22;4989;48.772;9.154;2023-09-30T20:37:19;20.90;76.40
9901;DHT22;4989;48.772;9.154;2023-09-30T20:42:41;20.90;77.20
9901;DHT22;4989;48.772;9.154;2023-09-30T20:48:02;20.70;77.90
9901;DHT22;4989;48.772;9.154;2023-09-30T20:53:25;20.80;75.90
9901;DHT22;4989;48.772;9.154;2023-09-30T20:58:48;20.80;75.80
9901;DHT22;4989;48.772;9.154;2023-09-30T21:04:10;20.60;74.70
9901;DHT22;4989;48.772;9.154;2023-09-30T21:09:32;20.60;74.20
9901;DHT22;4989;48.772;9.154;2023-09-30T21:14:53;20.30;75.10
9901;DHT22;4989;48.772;9.154;2023-09-30T21:20:14;20.40;78.40
9901;DHT22;4989;48.772;9.154;2023-09-30T21:25:35;20.70;74.80
9901;DHT22;4989;48.772;9.154;2023-09-30T21:30:56;20.40;75.50
9901;DHT22;4989;48.772;9.154;2023-09-30T21:36:17;20.50;76.80
9901;DHT22;4989;48.772;9.154;2023-09-30T21:41:38;19.90;73.60
9901;DHT22;4989;48.772;9.154;2023-09-30T21:47:01;19.30;75.70
9901;DHT22;4989;48.772;9.154;2023-09-30T21:52:22;18.80;77.40
9901;DHT22;4989;48.772;9.154;2023-09-30T21:57:44;18.80;78.30
9901;DHT22;4989;48.772;9.154;2023-09-30T22:03:06;19.40;81.50
9901;DHT22;4989;48.772;9.154;2023-09-30T22:08:29;19.80;77.40
9901;DHT22;4989;48.772;9.154;2023-09-30T22:13:52;19.80;75.30
9901;DHT22;4989;48.772;9.154;2023-09-30T22:19:13;19.10;78.50
9901;DHT22;4989;48.772;9.154;2023-09-30T22:24:35;19.40;77.80
9901;DHT22;4989;48.772;9.154;2023-09-30T22:29:56;19.60;77.10
9901;DHT22;4989;48.772;9.154;2023-09-30T22:35:17;19.80;76.30
9901;DHT22;4989;48.772;9.154;2023-09-30T22:40:39;19.80;78.20
9901;DHT22;4989;48.772;9.154;2023-09-30T22:46:02;19.70;76.80
9901;DHT22;4989;48.772;9.154;2023-09-30T22:51:27;19.30;75.40
9901;DHT22;4989;48.772;9.154;2023-09-30T22:56:48;18.70;77.70
9901;DHT22;4989;48.772;9.154;2023-09-30T23:02:09;19.20;79.10
9901;DHT22;4989;48.772;9.154;2023-09-30T23:07:30;19.60;79.50
9901;DHT22;4989;48.772;9.154;2023-09-30T23:12:52;19.60;79.50
9901;DHT22;4989;48.772;9.154;2023-09-30T23:18:13;19.30;76.20
9901;DHT22;4989;48.772;9.154;2023-09-30T23:23:34;19.30;78.70
9901;DHT22;4989;48.772;9.154;2023-09-30T23:28:56;19.20;77.20
9901;DHT22;4989;48.772;9.154;2023-09-30T23:34:19;19.10;77.70
9901;DHT22;4989;48.772;9.154;2023-09-30T23:39:40;18.90;78.30
9901;DHT22;4989;48.772;9.154;2023-09-30T23:45:01;18.60;79.40
9901;DHT22;4989;48.772;9.154;2023-09-30T23:50:23;18.20;84.20
9901;DHT22;4989;48.772;9.154;2023-09-30T23:55:46;18.90;81.70
